sensor_id;sensor_type;location;lat;lon;timestamp;pressure;altitude;pressure_sealevel;temperature;humidity
12077;BME280;12420;42.676;23.262;2024-03-29T00:00:40;94338.19;;;13.09;65.25
12077;BME280;12420;42.676;23.262;2024-03-29T00:03:07;94332.44;;;13.07;64.54
12077;BME280;12420;42.676;23.262;2024-03-29T00:05:33;94340.38;;;12.95;65.27
12077;BME280;12420;42.676;23.262;2024-03-29T00:07:58;94320.88;;;12.80;65.36
12077;BME280;12420;42.676;23.262;2024-03-29T00:10:24;94345.31;;;12.89;66.29
12077;BME280;12420;42.676;23.262;2024-03-29T00:12:51;94344.22;;;12.92;66.56
12077;BME280;12420;42.676;23.262;2024-03-29T00:15:17;94353.44;;;12.79;67.58
12077;BME280;12420;42.676;23.262;2024-03-29T00:17:43;94359.38;;;12.84;67.74
12077;BME280;12420;42.676;23.262;2024-03-29T00:20:09;94357.66;;;12.36;69.44
12077;BME280;12420;42.676;23.262;2024-03-29T00:22:35;94351.13;;;12.26;70.05
12077;BME280;12420;42.676;23.262;2024-03-29T00:25:01;94354.97;;;12.23;70.48
12077;BME280;12420;42.676;23.262;2024-03-29T00:27:27;94365.16;;;12.28;70.09
12077;BME280;12420;42.676;23.262;2024-03-29T00:29:55;94364.47;;;12.35;69.33
12077;BME280;12420;42.676;23.262;2024-03-29T00:32:20;94362.00;;;12.53;67.12
12077;BME280;12420;42.676;23.262;2024-03-29T00:34:46;94363.72;;;12.64;66.12
12077;BME280;12420;42.676;23.262;2024-03-29T00:37:12;94370.91;;;12.95;63.36
12077;BME280;12420;42.676;23.262;2024-03-29T00:39:38;94372.59;;;12.98;64.57
12077;BME280;12420;42.676;23.262;2024-03-29T00:42:04;94377.75;;;12.94;63.87
12077;BME280;12420;42.676;23.262;2024-03-29T00:44:30;94369.63;;;12.96;65.15
12077;BME280;12420;42.676;23.262;2024-03-29T00:46:57;94380.72;;;12.96;63.00
12077;BME280;12420;42.676;23.262;2024-03-29T00:49:23;94380.53;;;12.94;65.52
12077;BME280;12420;42.676;23.262;2024-03-29T00:51:49;94382.34;;;12.84;65.65
12077;BME280;12420;42.676;23.262;2024-03-29T00:54:14;94357.03;;;12.59;66.42
12077;BME280;12420;42.676;23.262;2024-03-29T00:56:40;94363.19;;;12.65;65.70
12077;BME280;12420;42.676;23.262;2024-03-29T00:59:06;94377.66;;;12.71;66.72
12077;BME280;12420;42.676;23.262;2024-03-29T01:01:32;94370.72;;;12.57;67.83
12077;BME280;12420;42.676;23.262;2024-03-29T01:03:59;94375.69;;;12.51;68.97
12077;BME280;12420;42.676;23.262;2024-03-29T01:06:25;94381.09;;;12.28;69.13
12077;BME280;12420;42.676;23.262;2024-03-29T01:08:50;94384.84;;;12.09;70.39
12077;BME280;12420;42.676;23.262;2024-03-29T01:11:16;94382.06;;;12.09;70.16
12077;BME280;12420;42.676;23.262;2024-03-29T01:13:42;94396.00;;;12.17;70.58
12077;BME280;12420;42.676;23.262;2024-03-29T01:16:08;94393.09;;;12.02;71.60
12077;BME280;12420;42.676;23.262;2024-03-29T01:18:34;94405.94;;;12.12;71.62
12077;BME280;12420;42.676;23.262;2024-03-29T01:21:01;94400.03;;;12.16;71.88
12077;BME280;12420;42.676;23.262;2024-03-29T01:23:26;94394.38;;;12.01;71.95
12077;BME280;12420;42.676;23.262;2024-03-29T01:25:52;94402.03;;;11.87;72.86
12077;BME280;12420;42.676;23.262;2024-03-29T01:28:18;94384.56;;;11.79;73.73
12077;BME280;12420;42.676;23.262;2024-03-29T01:30:51;94392.41;;;11.88;74.00
12077;BME280;12420;42.676;23.262;2024-03-29T01:33:17;94398.66;;;12.02;73.38
12077;BME280;12420;42.676;23.262;2024-03-29T01:35:43;94384.84;;;12.09;72.59
12077;BME280;12420;42.676;23.262;2024-03-29T01:38:10;94389.91;;;11.77;74.75
12077;BME280;12420;42.676;23.262;2024-03-29T01:40:36;94380.03;;;11.68;73.52
12077;BME280;12420;42.676;23.262;2024-03-29T01:43:02;94389.03;;;11.61;74.06
12077;BME280;12420;42.676;23.262;2024-03-29T01:45:29;94378.72;;;11.48;75.30
12077;BME280;12420;42.676;23.262;2024-03-29T01:47:56;94397.19;;;11.66;74.83
12077;BME280;12420;42.676;23.262;2024-03-29T01:50:23;94398.88;;;11.69;73.82
12077;BME280;12420;42.676;23.262;2024-03-29T01:52:50;94401.88;;;11.71;74.01
12077;BME280;12420;42.676;23.262;2024-03-29T01:55:18;94416.31;;;11.78;73.66
12077;BME280;12420;42.676;23.262;2024-03-29T01:57:45;94418.22;;;11.83;74.81
12077;BME280;12420;42.676;23.262;2024-03-29T02:00:13;94430.19;;;11.91;75.82
12077;BME280;12420;42.676;23.262;2024-03-29T02:02:40;94449.03;;;11.92;75.42
12077;BME280;12420;42.676;23.262;2024-03-29T02:05:07;94455.31;;;11.93;73.15
12077;BME280;12420;42.676;23.262;2024-03-29T02:07:34;94457.84;;;11.70;74.51
12077;BME280;12420;42.676;23.262;2024-03-29T02:10:02;94459.47;;;11.65;75.42
12077;BME280;12420;42.676;23.262;2024-03-29T02:12:30;94475.81;;;11.90;74.92
12077;BME280;12420;42.676;23.262;2024-03-29T02:14:57;94478.72;;;11.50;77.05
12077;BME280;12420;42.676;23.262;2024-03-29T02:17:25;94487.72;;;11.16;79.85
12077;BME280;12420;42.676;23.262;2024-03-29T02:19:51;94487.50;;;11.14;78.81
12077;BME280;12420;42.676;23.262;2024-03-29T02:22:20;94517.50;;;11.37;78.05
12077;BME280;12420;42.676;23.262;2024-03-29T02:24:50;94506.03;;;11.33;80.89
12077;BME280;12420;42.676;23.262;2024-03-29T02:27:17;94503.75;;;11.44;78.90
12077;BME280;12420;42.676;23.262;2024-03-29T02:29:44;94506.31;;;11.56;75.43
12077;BME280;12420;42.676;23.262;2024-03-29T02:32:11;94523.16;;;11.58;76.14
12077;BME280;12420;42.676;23.262;2024-03-29T02:34:37;94528.66;;;11.71;75.38
12077;BME280;12420;42.676;23.262;2024-03-29T02:37:04;94531.31;;;11.77;74.96
12077;BME280;12420;42.676;23.262;2024-03-29T02:39:31;94550.06;;;11.84;74.61
12077;BME280;12420;42.676;23.262;2024-03-29T02:41:59;94532.25;;;11.92;73.95
12077;BME280;12420;42.676;23.262;2024-03-29T02:44:26;94535.13;;;11.87;74.77
12077;BME280;12420;42.676;23.262;2024-03-29T02:46:53;94536.69;;;11.95;74.14
12077;BME280;12420;42.676;23.262;2024-03-29T02:49:18;94530.09;;;11.85;73.94
12077;BME280;12420;42.676;23.262;2024-03-29T02:51:45;94527.78;;;11.76;74.87
12077;BME280;12420;42.676;23.262;2024-03-29T02:54:11;94560.59;;;11.85;75.03
12077;BME280;12420;42.676;23.262;2024-03-29T02:56:37;94554.56;;;11.87;75.54
12077;BME280;12420;42.676;23.262;2024-03-29T02:59:04;94545.69;;;11.75;76.31
12077;BME280;12420;42.676;23.262;2024-03-29T03:01:31;94546.06;;;11.58;77.38
12077;BME280;12420;42.676;23.262;2024-03-29T03:03:57;94539.78;;;11.44;78.12
12077;BME280;12420;42.676;23.262;2024-03-29T03:06:24;94546.19;;;11.52;78.08
12077;BME280;12420;42.676;23.262;2024-03-29T03:08:49;94556.97;;;11.43;78.72
12077;BME280;12420;42.676;23.262;2024-03-29T03:11:34;94563.13;;;11.36;79.09
12077;BME280;12420;42.676;23.262;2024-03-29T03:14:00;94559.94;;;11.45;78.68
12077;BME280;12420;42.676;23.262;2024-03-29T03:16:28;94564.84;;;11.39;79.17
12077;BME280;12420;42.676;23.262;2024-03-29T03:18:54;94568.25;;;11.18;80.12
12077;BME280;12420;42.676;23.262;2024-03-29T03:21:21;94570.59;;;11.27;80.27
12077;BME280;12420;42.676;23.262;2024-03-29T03:23:46;94570.78;;;11.29;79.44
12077;BME280;12420;42.676;23.262;2024-03-29T03:26:13;94573.25;;;11.33;79.44
12077;BME280;12420;42.676;23.262;2024-03-29T03:28:39;94575.50;;;11.35;79.75
12077;BME280;12420;42.676;23.262;2024-03-29T03:31:06;94578.47;;;11.37;79.32
12077;BME280;12420;42.676;23.262;2024-03-29T03:33:34;94582.53;;;11.36;79.74
12077;BME280;12420;42.676;23.262;2024-03-29T03:36:00;94574.88;;;11.15;81.06
12077;BME280;12420;42.676;23.262;2024-03-29T03:38:26;94573.25;;;11.06;81.86
12077;BME280;12420;42.676;23.262;2024-03-29T03:40:53;94581.59;;;11.20;81.93
12077;BME280;12420;42.676;23.262;2024-03-29T03:43:19;94579.84;;;11.03;83.13
12077;BME280;12420;42.676;23.262;2024-03-29T03:45:45;94591.03;;;11.11;82.02
12077;BME280;12420;42.676;23.262;2024-03-29T03:48:13;94595.50;;;11.01;83.04
12077;BME280;12420;42.676;23.262;2024-03-29T03:50:41;94602.66;;;11.10;82.25
12077;BME280;12420;42.676;23.262;2024-03-29T03:53:07;94607.25;;;11.07;81.73
12077;BME280;12420;42.676;23.262;2024-03-29T03:55:36;94618.97;;;11.13;81.79
12077;BME280;12420;42.676;23.262;2024-03-29T03:58:01;94614.81;;;11.20;82.63
12077;BME280;12420;42.676;23.262;2024-03-29T04:00:28;94615.13;;;11.03;83.70
12077;BME280;12420;42.676;23.262;2024-03-29T04:02:54;94587.38;;;10.76;83.19
12077;BME280;12420;42.676;23.262;2024-03-29T04:05:22;94616.47;;;10.96;84.66
12077;BME280;12420;42.676;23.262;2024-03-29T04:07:49;94641.09;;;11.00;84.15
12077;BME280;12420;42.676;23.262;2024-03-29T04:10:16;94639.59;;;10.99;84.36
12077;BME280;12420;42.676;23.262;2024-03-29T04:12:41;94639.06;;;11.00;84.66
12077;BME280;12420;42.676;23.262;2024-03-29T04:15:08;94636.81;;;10.85;85.73
12077;BME280;12420;42.676;23.262;2024-03-29T04:17:34;94646.13;;;10.69;88.28
12077;BME280;12420;42.676;23.262;2024-03-29T04:20:01;94642.69;;;10.63;88.18
12077;BME280;12420;42.676;23.262;2024-03-29T04:22:27;94648.03;;;10.61;88.41
12077;BME280;12420;42.676;23.262;2024-03-29T04:24:55;94650.38;;;10.70;87.62
12077;BME280;12420;42.676;23.262;2024-03-29T04:27:21;94656.38;;;10.74;86.55
12077;BME280;12420;42.676;23.262;2024-03-29T04:29:51;94657.75;;;10.81;84.44
12077;BME280;12420;42.676;23.262;2024-03-29T04:32:17;94667.59;;;10.82;84.21
12077;BME280;12420;42.676;23.262;2024-03-29T04:34:46;94668.09;;;10.80;84.18
12077;BME280;12420;42.676;23.262;2024-03-29T04:37:12;94669.16;;;10.77;85.13
12077;BME280;12420;42.676;23.262;2024-03-29T04:39:38;94666.97;;;10.89;84.08
12077;BME280;12420;42.676;23.262;2024-03-29T04:42:07;94676.44;;;10.94;84.21
12077;BME280;12420;42.676;23.262;2024-03-29T04:44:34;94682.66;;;11.00;83.59
12077;BME280;12420;42.676;23.262;2024-03-29T04:47:00;94692.06;;;11.10;83.84
12077;BME280;12420;42.676;23.262;2024-03-29T04:49:27;94694.94;;;11.18;84.33
12077;BME280;12420;42.676;23.262;2024-03-29T04:51:58;94698.78;;;11.28;84.09
12077;BME280;12420;42.676;23.262;2024-03-29T04:54:25;94706.38;;;11.41;84.63
12077;BME280;12420;42.676;23.262;2024-03-29T04:56:52;94711.94;;;11.54;84.38
12077;BME280;12420;42.676;23.262;2024-03-29T04:59:20;94709.16;;;11.67;84.72
12077;BME280;12420;42.676;23.262;2024-03-29T05:01:48;94714.63;;;11.73;85.48
12077;BME280;12420;42.676;23.262;2024-03-29T05:04:16;94714.94;;;11.83;81.98
12077;BME280;12420;42.676;23.262;2024-03-29T05:06:50;94717.53;;;11.94;83.78
12077;BME280;12420;42.676;23.262;2024-03-29T05:09:17;94712.50;;;11.92;81.56
12077;BME280;12420;42.676;23.262;2024-03-29T05:11:43;94709.22;;;11.94;79.33
12077;BME280;12420;42.676;23.262;2024-03-29T05:14:11;94718.91;;;12.14;78.47
12077;BME280;12420;42.676;23.262;2024-03-29T05:16:40;94717.50;;;12.21;78.24
12077;BME280;12420;42.676;23.262;2024-03-29T05:19:07;94730.91;;;12.43;76.78
12077;BME280;12420;42.676;23.262;2024-03-29T05:21:34;94738.06;;;12.52;76.18
12077;BME280;12420;42.676;23.262;2024-03-29T05:24:01;94742.06;;;12.64;75.74
12077;BME280;12420;42.676;23.262;2024-03-29T05:26:27;94744.16;;;12.85;75.52
12077;BME280;12420;42.676;23.262;2024-03-29T05:28:54;94748.03;;;13.02;74.34
12077;BME280;12420;42.676;23.262;2024-03-29T05:31:23;94758.91;;;13.14;73.46
12077;BME280;12420;42.676;23.262;2024-03-29T05:33:51;94757.78;;;13.30;71.45
12077;BME280;12420;42.676;23.262;2024-03-29T05:36:18;94757.03;;;13.51;70.41
12077;BME280;12420;42.676;23.262;2024-03-29T05:38:45;94771.25;;;13.68;68.45
12077;BME280;12420;42.676;23.262;2024-03-29T05:41:12;94765.13;;;13.90;68.37
12077;BME280;12420;42.676;23.262;2024-03-29T05:43:38;94761.16;;;14.07;66.55
12077;BME280;12420;42.676;23.262;2024-03-29T05:46:05;94762.34;;;14.19;65.34
12077;BME280;12420;42.676;23.262;2024-03-29T05:48:32;94765.09;;;14.48;65.62
12077;BME280;12420;42.676;23.262;2024-03-29T05:51:00;94761.63;;;14.63;62.62
12077;BME280;12420;42.676;23.262;2024-03-29T05:53:27;94772.25;;;14.64;61.56
12077;BME280;12420;42.676;23.262;2024-03-29T05:55:54;94769.47;;;14.64;61.09
12077;BME280;12420;42.676;23.262;2024-03-29T05:58:21;94771.13;;;14.67;60.24
12077;BME280;12420;42.676;23.262;2024-03-29T06:00:48;94764.44;;;14.63;60.49
12077;BME280;12420;42.676;23.262;2024-03-29T06:03:14;94775.78;;;14.65;60.44
12077;BME280;12420;42.676;23.262;2024-03-29T06:05:41;94786.56;;;14.68;60.29
12077;BME280;12420;42.676;23.262;2024-03-29T06:08:09;94780.28;;;14.83;59.97
12077;BME280;12420;42.676;23.262;2024-03-29T06:10:36;94781.28;;;14.93;58.79
12077;BME280;12420;42.676;23.262;2024-03-29T06:13:03;94783.91;;;15.07;58.59
12077;BME280;12420;42.676;23.262;2024-03-29T06:15:35;94787.84;;;15.11;58.14
12077;BME280;12420;42.676;23.262;2024-03-29T06:18:19;94691.97;;;14.55;57.48
12077;BME280;12420;42.676;23.262;2024-03-29T06:20:47;94777.63;;;15.22;57.89
12077;BME280;12420;42.676;23.262;2024-03-29T06:23:15;94764.97;;;15.13;56.86
12077;BME280;12420;42.676;23.262;2024-03-29T06:25:42;94785.81;;;15.27;57.63
12077;BME280;12420;42.676;23.262;2024-03-29T06:28:08;94761.22;;;15.03;57.10
12077;BME280;12420;42.676;23.262;2024-03-29T06:30:35;94788.06;;;15.44;56.94
12077;BME280;12420;42.676;23.262;2024-03-29T06:33:02;94789.00;;;15.62;56.57
12077;BME280;12420;42.676;23.262;2024-03-29T06:35:29;94792.03;;;15.72;55.26
12077;BME280;12420;42.676;23.262;2024-03-29T06:37:56;94785.16;;;15.80;55.55
12077;BME280;12420;42.676;23.262;2024-03-29T06:40:25;94770.59;;;15.67;54.33
12077;BME280;12420;42.676;23.262;2024-03-29T06:42:52;94790.53;;;15.86;54.43
12077;BME280;12420;42.676;23.262;2024-03-29T06:45:21;94801.31;;;15.97;55.13
12077;BME280;12420;42.676;23.262;2024-03-29T06:47:48;94800.22;;;16.00;55.15
12077;BME280;12420;42.676;23.262;2024-03-29T06:50:15;94797.06;;;16.04;54.61
12077;BME280;12420;42.676;23.262;2024-03-29T06:52:42;94798.50;;;16.20;55.17
12077;BME280;12420;42.676;23.262;2024-03-29T06:55:08;94791.81;;;16.31;54.51
12077;BME280;12420;42.676;23.262;2024-03-29T06:57:38;94793.47;;;16.34;54.54
12077;BME280;12420;42.676;23.262;2024-03-29T07:00:06;94807.66;;;16.21;54.69
12077;BME280;12420;42.676;23.262;2024-03-29T07:02:34;94785.13;;;16.19;55.35
12077;BME280;12420;42.676;23.262;2024-03-29T07:05:00;94797.38;;;16.46;54.41
12077;BME280;12420;42.676;23.262;2024-03-29T07:07:31;94799.22;;;16.52;54.86
12077;BME280;12420;42.676;23.262;2024-03-29T07:09:57;94807.38;;;16.65;54.08
12077;BME280;12420;42.676;23.262;2024-03-29T07:12:24;94811.09;;;16.60;53.57
12077;BME280;12420;42.676;23.262;2024-03-29T07:14:52;94814.28;;;16.48;52.87
12077;BME280;12420;42.676;23.262;2024-03-29T07:17:19;94813.34;;;16.54;53.35
12077;BME280;12420;42.676;23.262;2024-03-29T07:19:46;94801.75;;;16.73;52.65
12077;BME280;12420;42.676;23.262;2024-03-29T07:22:13;94821.69;;;16.84;54.01
12077;BME280;12420;42.676;23.262;2024-03-29T07:24:39;94819.16;;;17.04;53.15
12077;BME280;12420;42.676;23.262;2024-03-29T07:27:06;94821.72;;;17.17;52.08
12077;BME280;12420;42.676;23.262;2024-03-29T07:29:33;94820.41;;;17.18;50.56
12077;BME280;12420;42.676;23.262;2024-03-29T07:32:01;94822.41;;;17.33;51.39
12077;BME280;12420;42.676;23.262;2024-03-29T07:34:28;94819.19;;;17.36;50.18
12077;BME280;12420;42.676;23.262;2024-03-29T07:36:55;94817.72;;;17.35;51.90
12077;BME280;12420;42.676;23.262;2024-03-29T07:39:22;94831.44;;;17.49;51.38
12077;BME280;12420;42.676;23.262;2024-03-29T07:41:50;94819.28;;;17.54;52.02
12077;BME280;12420;42.676;23.262;2024-03-29T07:44:16;94816.25;;;17.60;51.97
12077;BME280;12420;42.676;23.262;2024-03-29T07:46:44;94814.69;;;17.74;51.20
12077;BME280;12420;42.676;23.262;2024-03-29T07:49:13;94813.31;;;17.83;50.88
12077;BME280;12420;42.676;23.262;2024-03-29T07:51:40;94807.03;;;17.99;50.62
12077;BME280;12420;42.676;23.262;2024-03-29T07:54:07;94806.44;;;17.84;50.11
12077;BME280;12420;42.676;23.262;2024-03-29T07:56:34;94818.00;;;18.05;49.96
12077;BME280;12420;42.676;23.262;2024-03-29T07:59:00;94820.19;;;18.14;49.56
12077;BME280;12420;42.676;23.262;2024-03-29T08:01:27;94825.13;;;18.23;49.77
12077;BME280;12420;42.676;23.262;2024-03-29T08:03:54;94813.94;;;18.41;50.61
12077;BME280;12420;42.676;23.262;2024-03-29T08:06:22;94823.03;;;18.49;50.09
12077;BME280;12420;42.676;23.262;2024-03-29T08:08:49;94818.41;;;18.61;50.04
12077;BME280;12420;42.676;23.262;2024-03-29T08:11:17;94823.94;;;18.69;50.17
12077;BME280;12420;42.676;23.262;2024-03-29T08:13:43;94824.22;;;18.81;48.76
12077;BME280;12420;42.676;23.262;2024-03-29T08:16:10;94799.44;;;18.70;49.32
12077;BME280;12420;42.676;23.262;2024-03-29T08:18:37;94813.91;;;19.01;48.73
12077;BME280;12420;42.676;23.262;2024-03-29T08:21:04;94813.72;;;19.16;48.54
12077;BME280;12420;42.676;23.262;2024-03-29T08:23:38;94809.91;;;19.21;46.88
12077;BME280;12420;42.676;23.262;2024-03-29T08:26:05;94793.47;;;19.18;47.02
12077;BME280;12420;42.676;23.262;2024-03-29T08:28:32;94799.38;;;19.39;47.23
12077;BME280;12420;42.676;23.262;2024-03-29T08:31:02;94792.44;;;19.40;47.27
12077;BME280;12420;42.676;23.262;2024-03-29T08:33:29;94800.00;;;19.47;47.01
12077;BME280;12420;42.676;23.262;2024-03-29T08:35:57;94785.66;;;19.43;47.35
12077;BME280;12420;42.676;23.262;2024-03-29T08:38:23;94761.19;;;19.26;47.52
12077;BME280;12420;42.676;23.262;2024-03-29T08:40:52;94779.25;;;19.33;44.63
12077;BME280;12420;42.676;23.262;2024-03-29T08:43:19;94789.44;;;19.28;45.06
12077;BME280;12420;42.676;23.262;2024-03-29T08:45:46;94787.41;;;19.39;45.29
12077;BME280;12420;42.676;23.262;2024-03-29T08:48:13;94790.56;;;19.52;44.49
12077;BME280;12420;42.676;23.262;2024-03-29T08:50:40;94776.09;;;19.46;44.96
12077;BME280;12420;42.676;23.262;2024-03-29T08:53:07;94773.28;;;19.46;44.80
12077;BME280;12420;42.676;23.262;2024-03-29T08:55:34;94777.16;;;19.61;45.21
12077;BME280;12420;42.676;23.262;2024-03-29T08:58:03;94781.41;;;19.79;46.24
12077;BME280;12420;42.676;23.262;2024-03-29T09:00:30;94777.44;;;19.82;42.25
12077;BME280;12420;42.676;23.262;2024-03-29T09:02:58;94752.41;;;19.77;41.66
12077;BME280;12420;42.676;23.262;2024-03-29T09:05:25;94769.19;;;19.94;41.26
12077;BME280;12420;42.676;23.262;2024-03-29T09:07:53;94765.97;;;19.98;41.74
12077;BME280;12420;42.676;23.262;2024-03-29T09:10:21;94760.47;;;20.00;41.04
12077;BME280;12420;42.676;23.262;2024-03-29T09:12:48;94741.53;;;19.90;42.75
12077;BME280;12420;42.676;23.262;2024-03-29T09:15:16;94751.19;;;20.07;42.74
12077;BME280;12420;42.676;23.262;2024-03-29T09:17:44;94738.63;;;20.08;40.54
12077;BME280;12420;42.676;23.262;2024-03-29T09:20:11;94741.75;;;20.22;39.16
12077;BME280;12420;42.676;23.262;2024-03-29T09:22:38;94722.81;;;20.12;37.64
12077;BME280;12420;42.676;23.262;2024-03-29T09:25:05;94739.41;;;20.28;38.81
12077;BME280;12420;42.676;23.262;2024-03-29T09:27:34;94775.91;;;20.18;39.71
12077;BME280;12420;42.676;23.262;2024-03-29T09:30:02;94722.38;;;20.16;40.39
12077;BME280;12420;42.676;23.262;2024-03-29T09:32:32;94704.47;;;20.11;39.71
12077;BME280;12420;42.676;23.262;2024-03-29T09:34:59;94689.22;;;20.05;37.93
12077;BME280;12420;42.676;23.262;2024-03-29T09:37:26;94693.81;;;20.20;37.01
12077;BME280;12420;42.676;23.262;2024-03-29T09:39:53;94709.38;;;20.30;38.03
12077;BME280;12420;42.676;23.262;2024-03-29T09:42:22;94701.66;;;20.31;37.23
12077;BME280;12420;42.676;23.262;2024-03-29T09:44:50;94693.22;;;20.21;37.44
12077;BME280;12420;42.676;23.262;2024-03-29T09:47:18;94710.25;;;20.23;38.27
12077;BME280;12420;42.676;23.262;2024-03-29T09:49:47;94689.53;;;20.28;38.66
12077;BME280;12420;42.676;23.262;2024-03-29T09:52:16;94687.31;;;20.36;40.20
12077;BME280;12420;42.676;23.262;2024-03-29T09:54:43;94679.34;;;20.33;38.70
12077;BME280;12420;42.676;23.262;2024-03-29T09:57:12;94686.28;;;20.32;40.17
12077;BME280;12420;42.676;23.262;2024-03-29T09:59:39;94684.81;;;20.31;40.33
12077;BME280;12420;42.676;23.262;2024-03-29T10:02:11;94668.69;;;20.31;39.36
12077;BME280;12420;42.676;23.262;2024-03-29T10:04:42;94679.47;;;20.45;39.76
12077;BME280;12420;42.676;23.262;2024-03-29T10:07:10;94678.28;;;20.48;39.55
12077;BME280;12420;42.676;23.262;2024-03-29T10:09:38;94671.50;;;20.51;40.43
12077;BME280;12420;42.676;23.262;2024-03-29T10:12:06;94675.06;;;20.61;41.52
12077;BME280;12420;42.676;23.262;2024-03-29T10:14:43;94668.41;;;20.66;40.74
12077;BME280;12420;42.676;23.262;2024-03-29T10:17:15;94665.88;;;20.41;39.91
12077;BME280;12420;42.676;23.262;2024-03-29T10:19:42;94673.41;;;20.48;40.77
12077;BME280;12420;42.676;23.262;2024-03-29T10:22:10;94666.91;;;20.55;41.07
12077;BME280;12420;42.676;23.262;2024-03-29T10:24:37;94673.84;;;20.35;40.51
12077;BME280;12420;42.676;23.262;2024-03-29T10:27:05;94665.72;;;20.49;39.79
12077;BME280;12420;42.676;23.262;2024-03-29T10:29:32;94673.53;;;20.50;40.43
12077;BME280;12420;42.676;23.262;2024-03-29T10:32:00;94671.38;;;20.58;40.03
12077;BME280;12420;42.676;23.262;2024-03-29T10:34:27;94672.53;;;20.65;40.02
12077;BME280;12420;42.676;23.262;2024-03-29T10:36:59;94661.72;;;20.62;40.40
12077;BME280;12420;42.676;23.262;2024-03-29T10:39:29;94658.47;;;20.65;39.23
12077;BME280;12420;42.676;23.262;2024-03-29T10:41:56;94661.56;;;20.79;39.71
12077;BME280;12420;42.676;23.262;2024-03-29T10:44:25;94664.22;;;20.87;40.17
12077;BME280;12420;42.676;23.262;2024-03-29T10:46:52;94659.28;;;20.97;40.00
12077;BME280;12420;42.676;23.262;2024-03-29T10:49:20;94661.50;;;20.98;40.63
12077;BME280;12420;42.676;23.262;2024-03-29T10:51:49;94650.72;;;20.95;40.65
12077;BME280;12420;42.676;23.262;2024-03-29T10:54:16;94649.09;;;20.92;41.16
12077;BME280;12420;42.676;23.262;2024-03-29T10:56:47;94653.19;;;21.00;40.91
12077;BME280;12420;42.676;23.262;2024-03-29T10:59:21;94651.41;;;21.05;40.17
12077;BME280;12420;42.676;23.262;2024-03-29T11:01:51;94644.59;;;21.08;41.33
12077;BME280;12420;42.676;23.262;2024-03-29T11:04:22;94656.84;;;21.22;39.46
12077;BME280;12420;42.676;23.262;2024-03-29T11:06:50;94649.41;;;21.27;40.38
12077;BME280;12420;42.676;23.262;2024-03-29T11:09:19;94644.72;;;21.20;39.61
12077;BME280;12420;42.676;23.262;2024-03-29T11:11:51;94645.84;;;21.27;39.61
12077;BME280;12420;42.676;23.262;2024-03-29T11:14:20;94632.84;;;21.21;41.11
12077;BME280;12420;42.676;23.262;2024-03-29T11:16:51;94640.03;;;21.34;40.60
12077;BME280;12420;42.676;23.262;2024-03-29T11:19:23;94643.00;;;21.36;40.87
12077;BME280;12420;42.676;23.262;2024-03-29T11:21:50;94642.25;;;21.36;39.92
12077;BME280;12420;42.676;23.262;2024-03-29T11:24:17;94642.84;;;21.34;39.90
12077;BME280;12420;42.676;23.262;2024-03-29T11:26:45;94623.50;;;21.19;41.41
12077;BME280;12420;42.676;23.262;2024-03-29T11:29:19;94633.47;;;21.10;41.22
12077;BME280;12420;42.676;23.262;2024-03-29T11:31:47;94635.22;;;21.15;41.45
12077;BME280;12420;42.676;23.262;2024-03-29T11:34:18;94630.59;;;21.30;42.18
12077;BME280;12420;42.676;23.262;2024-03-29T11:36:45;94631.50;;;21.22;43.30
12077;BME280;12420;42.676;23.262;2024-03-29T11:39:20;94637.38;;;21.36;40.87
12077;BME280;12420;42.676;23.262;2024-03-29T11:41:47;94614.44;;;21.30;40.44
12077;BME280;12420;42.676;23.262;2024-03-29T11:44:15;94624.34;;;21.41;40.71
12077;BME280;12420;42.676;23.262;2024-03-29T11:46:43;94634.81;;;21.50;41.60
12077;BME280;12420;42.676;23.262;2024-03-29T11:49:10;94632.41;;;21.56;40.26
12077;BME280;12420;42.676;23.262;2024-03-29T11:51:37;94628.38;;;21.59;41.31
12077;BME280;12420;42.676;23.262;2024-03-29T11:54:04;94616.53;;;21.61;41.11
12077;BME280;12420;42.676;23.262;2024-03-29T11:56:31;94621.47;;;21.72;40.91
12077;BME280;12420;42.676;23.262;2024-03-29T11:58:57;94612.16;;;21.70;40.15
12077;BME280;12420;42.676;23.262;2024-03-29T12:01:26;94615.66;;;21.80;39.72
12077;BME280;12420;42.676;23.262;2024-03-29T12:03:56;94618.75;;;21.84;40.98
12077;BME280;12420;42.676;23.262;2024-03-29T12:06:23;94608.34;;;21.86;39.87
12077;BME280;12420;42.676;23.262;2024-03-29T12:08:49;94613.78;;;21.94;38.75
12077;BME280;12420;42.676;23.262;2024-03-29T12:11:18;94612.31;;;21.93;38.77
12077;BME280;12420;42.676;23.262;2024-03-29T12:13:45;94615.81;;;22.03;38.53
12077;BME280;12420;42.676;23.262;2024-03-29T12:16:12;94612.22;;;22.03;39.52
12077;BME280;12420;42.676;23.262;2024-03-29T12:18:40;94606.38;;;22.10;38.59
12077;BME280;12420;42.676;23.262;2024-03-29T12:21:08;94608.75;;;22.14;38.23
12077;BME280;12420;42.676;23.262;2024-03-29T12:23:38;94612.25;;;22.24;38.62
12077;BME280;12420;42.676;23.262;2024-03-29T12:26:05;94610.50;;;22.19;37.75
12077;BME280;12420;42.676;23.262;2024-03-29T12:28:33;94615.38;;;22.19;37.53
12077;BME280;12420;42.676;23.262;2024-03-29T12:31:00;94614.06;;;22.20;37.37
12077;BME280;12420;42.676;23.262;2024-03-29T12:33:28;94608.94;;;22.28;37.56
12077;BME280;12420;42.676;23.262;2024-03-29T12:35:57;94599.13;;;22.07;37.03
12077;BME280;12420;42.676;23.262;2024-03-29T12:38:26;94608.81;;;22.26;36.07
12077;BME280;12420;42.676;23.262;2024-03-29T12:40:53;94601.97;;;22.29;36.42
12077;BME280;12420;42.676;23.262;2024-03-29T12:43:23;94590.06;;;22.30;36.49
12077;BME280;12420;42.676;23.262;2024-03-29T12:45:50;94578.84;;;22.42;37.28
12077;BME280;12420;42.676;23.262;2024-03-29T12:48:20;94579.84;;;22.47;34.96
12077;BME280;12420;42.676;23.262;2024-03-29T12:50:48;94593.59;;;22.64;34.56